sensor_id;sensor_type;location;lat;lon;timestamp;P1;durP1;ratioP1;P2;durP2;ratioP2
1350;SDS011;669;50.206;9.998;2023-12-20T00:01:20;4.17;;;3.77;;
1350;SDS011;669;50.206;9.998;2023-12-20T00:03:48;2.10;;;1.90;;
1350;SDS011;669;50.206;9.998;2023-12-20T00:06:16;1.97;;;1.80;;
1350;SDS011;669;50.206;9.998;2023-12-20T00:08:45;2.33;;;2.13;;
1350;SDS011;669;50.206;9.998;2023-12-20T00:11:14;2.10;;;1.90;;
1350;SDS011;669;50.206;9.998;2023-12-20T00:13:42;4.90;;;3.80;;
1350;SDS011;669;50.206;9.998;2023-12-20T00:16:11;3.37;;;2.73;;
1350;SDS011;669;50.206;9.998;2023-12-20T00:18:39;3.33;;;3.07;;
1350;SDS011;669;50.206;9.998;2023-12-20T00:21:07;4.40;;;4.00;;
1350;SDS011;669;50.206;9.998;2023-12-20T00:23:35;5.60;;;5.20;;
1350;SDS011;669;50.206;9.998;2023-12-20T00:26:05;2.60;;;2.40;;
1350;SDS011;669;50.206;9.998;2023-12-20T00:28:33;1.80;;;1.70;;
1350;SDS011;669;50.206;9.998;2023-12-20T00:31:00;1.33;;;1.33;;
1350;SDS011;669;50.206;9.998;2023-12-20T00:33:29;1.30;;;1.30;;
1350;SDS011;669;50.206;9.998;2023-12-20T00:35:57;5.23;;;1.43;;
1350;SDS011;669;50.206;9.998;2023-12-20T00:38:25;1.47;;;1.40;;
1350;SDS011;669;50.206;9.998;2023-12-20T00:40:53;1.07;;;0.97;;
1350;SDS011;669;50.206;9.998;2023-12-20T00:43:22;2.77;;;1.10;;
1350;SDS011;669;50.206;9.998;2023-12-20T00:45:50;1.30;;;1.20;;
1350;SDS011;669;50.206;9.998;2023-12-20T00:48:18;1.10;;;1.10;;
1350;SDS011;669;50.206;9.998;2023-12-20T00:50:46;1.20;;;1.10;;
1350;SDS011;669;50.206;9.998;2023-12-20T00:53:14;0.83;;;0.83;;
1350;SDS011;669;50.206;9.998;2023-12-20T00:55:42;1.10;;;1.00;;
1350;SDS011;669;50.206;9.998;2023-12-20T00:58:11;1.33;;;1.10;;
1350;SDS011;669;50.206;9.998;2023-12-20T01:00:43;1.00;;;1.00;;
1350;SDS011;669;50.206;9.998;2023-12-20T01:03:11;1.83;;;0.93;;
1350;SDS011;669;50.206;9.998;2023-12-20T01:05:40;0.80;;;0.80;;
1350;SDS011;669;50.206;9.998;2023-12-20T01:08:08;1.27;;;1.17;;
1350;SDS011;669;50.206;9.998;2023-12-20T01:10:36;0.70;;;0.70;;
1350;SDS011;669;50.206;9.998;2023-12-20T01:13:04;0.90;;;0.80;;
1350;SDS011;669;50.206;9.998;2023-12-20T01:15:32;0.87;;;0.87;;
1350;SDS011;669;50.206;9.998;2023-12-20T01:18:01;0.50;;;0.50;;
1350;SDS011;669;50.206;9.998;2023-12-20T01:20:29;0.80;;;0.80;;
1350;SDS011;669;50.206;9.998;2023-12-20T01:22:57;0.70;;;0.70;;
1350;SDS011;669;50.206;9.998;2023-12-20T01:25:25;0.93;;;0.93;;
1350;SDS011;669;50.206;9.998;2023-12-20T01:27:53;0.83;;;0.83;;
1350;SDS011;669;50.206;9.998;2023-12-20T01:30:21;0.50;;;0.50;;
1350;SDS011;669;50.206;9.998;2023-12-20T01:32:50;1.23;;;0.77;;
1350;SDS011;669;50.206;9.998;2023-12-20T01:35:20;0.63;;;0.63;;
1350;SDS011;669;50.206;9.998;2023-12-20T01:37:48;0.70;;;0.70;;
1350;SDS011;669;50.206;9.998;2023-12-20T01:40:16;1.27;;;1.10;;
1350;SDS011;669;50.206;9.998;2023-12-20T01:42:44;0.50;;;0.50;;
1350;SDS011;669;50.206;9.998;2023-12-20T01:45:12;0.80;;;0.80;;
1350;SDS011;669;50.206;9.998;2023-12-20T01:47:40;0.70;;;0.60;;
1350;SDS011;669;50.206;9.998;2023-12-20T01:50:08;0.70;;;0.70;;
1350;SDS011;669;50.206;9.998;2023-12-20T01:52:38;0.60;;;0.60;;
1350;SDS011;669;50.206;9.998;2023-12-20T01:55:06;0.63;;;0.63;;
1350;SDS011;669;50.206;9.998;2023-12-20T01:57:39;0.87;;;0.87;;
1350;SDS011;669;50.206;9.998;2023-12-20T02:00:09;0.60;;;0.60;;
1350;SDS011;669;50.206;9.998;2023-12-20T02:02:39;0.50;;;0.50;;
1350;SDS011;669;50.206;9.998;2023-12-20T02:05:07;0.80;;;0.80;;
1350;SDS011;669;50.206;9.998;2023-12-20T02:07:36;0.57;;;0.57;;
1350;SDS011;669;50.206;9.998;2023-12-20T02:10:06;0.60;;;0.60;;
1350;SDS011;669;50.206;9.998;2023-12-20T02:12:34;0.70;;;0.70;;
1350;SDS011;669;50.206;9.998;2023-12-20T02:15:03;0.50;;;0.50;;
1350;SDS011;669;50.206;9.998;2023-12-20T02:17:31;0.50;;;0.50;;
1350;SDS011;669;50.206;9.998;2023-12-20T02:20:00;0.67;;;0.67;;
1350;SDS011;669;50.206;9.998;2023-12-20T02:22:30;0.60;;;0.60;;
1350;SDS011;669;50.206;9.998;2023-12-20T02:24:57;0.93;;;0.90;;
1350;SDS011;669;50.206;9.998;2023-12-20T02:27:25;0.73;;;0.73;;
1350;SDS011;669;50.206;9.998;2023-12-20T02:29:55;1.30;;;0.50;;
1350;SDS011;669;50.206;9.998;2023-12-20T02:32:22;0.70;;;0.70;;
1350;SDS011;669;50.206;9.998;2023-12-20T02:34:53;0.90;;;0.90;;
1350;SDS011;669;50.206;9.998;2023-12-20T02:37:21;1.00;;;1.00;;
1350;SDS011;669;50.206;9.998;2023-12-20T02:39:50;1.00;;;1.00;;
1350;SDS011;669;50.206;9.998;2023-12-20T02:42:18;0.60;;;0.60;;
1350;SDS011;669;50.206;9.998;2023-12-20T02:44:46;0.60;;;0.60;;
1350;SDS011;669;50.206;9.998;2023-12-20T02:47:14;0.80;;;0.80;;
1350;SDS011;669;50.206;9.998;2023-12-20T02:49:42;0.90;;;0.90;;
1350;SDS011;669;50.206;9.998;2023-12-20T02:52:10;0.70;;;0.70;;
1350;SDS011;669;50.206;9.998;2023-12-20T02:54:38;0.70;;;0.70;;
1350;SDS011;669;50.206;9.998;2023-12-20T02:57:08;1.23;;;0.90;;
1350;SDS011;669;50.206;9.998;2023-12-20T02:59:35;0.60;;;0.60;;
1350;SDS011;669;50.206;9.998;2023-12-20T03:02:03;1.17;;;0.60;;
1350;SDS011;669;50.206;9.998;2023-12-20T03:04:31;0.53;;;0.53;;
1350;SDS011;669;50.206;9.998;2023-12-20T03:07:00;0.70;;;0.70;;
1350;SDS011;669;50.206;9.998;2023-12-20T03:09:28;1.27;;;0.70;;
1350;SDS011;669;50.206;9.998;2023-12-20T03:12:08;1.07;;;0.97;;
1350;SDS011;669;50.206;9.998;2023-12-20T03:14:36;0.93;;;0.90;;
1350;SDS011;669;50.206;9.998;2023-12-20T03:17:04;0.90;;;0.80;;
1350;SDS011;669;50.206;9.998;2023-12-20T03:19:32;0.70;;;0.70;;
1350;SDS011;669;50.206;9.998;2023-12-20T03:22:00;2.23;;;0.80;;
1350;SDS011;669;50.206;9.998;2023-12-20T03:24:28;0.80;;;0.80;;
1350;SDS011;669;50.206;9.998;2023-12-20T03:26:56;0.80;;;0.80;;
1350;SDS011;669;50.206;9.998;2023-12-20T03:29:25;0.93;;;0.90;;
1350;SDS011;669;50.206;9.998;2023-12-20T03:31:53;1.57;;;1.47;;
1350;SDS011;669;50.206;9.998;2023-12-20T03:34:21;1.10;;;0.90;;
1350;SDS011;669;50.206;9.998;2023-12-20T03:36:49;0.77;;;0.77;;
1350;SDS011;669;50.206;9.998;2023-12-20T03:39:17;0.70;;;0.70;;
1350;SDS011;669;50.206;9.998;2023-12-20T03:41:45;1.40;;;1.30;;
1350;SDS011;669;50.206;9.998;2023-12-20T03:44:13;1.00;;;1.00;;
1350;SDS011;669;50.206;9.998;2023-12-20T03:46:42;0.80;;;0.80;;
1350;SDS011;669;50.206;9.998;2023-12-20T03:49:11;0.93;;;0.90;;
1350;SDS011;669;50.206;9.998;2023-12-20T03:51:39;0.80;;;0.80;;
1350;SDS011;669;50.206;9.998;2023-12-20T03:54:09;0.80;;;0.80;;
1350;SDS011;669;50.206;9.998;2023-12-20T03:56:36;0.73;;;0.73;;
1350;SDS011;669;50.206;9.998;2023-12-20T03:59:04;0.80;;;0.80;;
1350;SDS011;669;50.206;9.998;2023-12-20T04:01:32;1.33;;;1.33;;
1350;SDS011;669;50.206;9.998;2023-12-20T04:04:02;1.10;;;1.00;;
1350;SDS011;669;50.206;9.998;2023-12-20T04:06:30;1.20;;;1.10;;
1350;SDS011;669;50.206;9.998;2023-12-20T04:08:58;1.00;;;1.00;;
1350;SDS011;669;50.206;9.998;2023-12-20T04:11:26;0.90;;;0.90;;
1350;SDS011;669;50.206;9.998;2023-12-20T04:13:54;1.63;;;1.00;;
1350;SDS011;669;50.206;9.998;2023-12-20T04:16:22;0.77;;;0.77;;
1350;SDS011;669;50.206;9.998;2023-12-20T04:18:50;1.20;;;1.20;;
1350;SDS011;669;50.206;9.998;2023-12-20T04:21:20;0.90;;;0.90;;
1350;SDS011;669;50.206;9.998;2023-12-20T04:23:48;1.07;;;1.07;;
1350;SDS011;669;50.206;9.998;2023-12-20T04:26:16;0.97;;;0.97;;
1350;SDS011;669;50.206;9.998;2023-12-20T04:28:43;1.00;;;1.00;;
1350;SDS011;669;50.206;9.998;2023-12-20T04:31:11;1.20;;;1.10;;
1350;SDS011;669;50.206;9.998;2023-12-20T04:33:39;1.20;;;1.10;;
1350;SDS011;669;50.206;9.998;2023-12-20T04:36:08;1.10;;;1.00;;
1350;SDS011;669;50.206;9.998;2023-12-20T04:38:37;1.37;;;1.27;;
1350;SDS011;669;50.206;9.998;2023-12-20T04:41:05;1.30;;;1.20;;
1350;SDS011;669;50.206;9.998;2023-12-20T04:43:33;1.00;;;1.00;;
1350;SDS011;669;50.206;9.998;2023-12-20T04:46:01;1.37;;;1.23;;
1350;SDS011;669;50.206;9.998;2023-12-20T04:48:29;1.13;;;1.13;;
1350;SDS011;669;50.206;9.998;2023-12-20T04:50:57;1.23;;;1.20;;
1350;SDS011;669;50.206;9.998;2023-12-20T04:53:25;0.90;;;0.90;;
1350;SDS011;669;50.206;9.998;2023-12-20T04:55:55;0.90;;;0.90;;
1350;SDS011;669;50.206;9.998;2023-12-20T04:58:23;0.87;;;0.87;;
1350;SDS011;669;50.206;9.998;2023-12-20T05:00:51;0.80;;;0.80;;
1350;SDS011;669;50.206;9.998;2023-12-20T05:03:19;1.13;;;1.13;;
1350;SDS011;669;50.206;9.998;2023-12-20T05:05:47;0.90;;;0.90;;
1350;SDS011;669;50.206;9.998;2023-12-20T05:08:15;1.07;;;1.07;;
1350;SDS011;669;50.206;9.998;2023-12-20T05:10:43;1.23;;;1.17;;
1350;SDS011;669;50.206;9.998;2023-12-20T05:13:13;1.77;;;1.20;;
1350;SDS011;669;50.206;9.998;2023-12-20T05:15:40;7.10;;;1.33;;
1350;SDS011;669;50.206;9.998;2023-12-20T05:18:08;1.37;;;1.20;;
1350;SDS011;669;50.206;9.998;2023-12-20T05:20:36;1.90;;;1.80;;
1350;SDS011;669;50.206;9.998;2023-12-20T05:23:04;2.13;;;2.03;;
1350;SDS011;669;50.206;9.998;2023-12-20T05:25:32;2.53;;;2.33;;
1350;SDS011;669;50.206;9.998;2023-12-20T05:28:00;3.13;;;2.93;;
1350;SDS011;669;50.206;9.998;2023-12-20T05:30:29;4.60;;;2.87;;
1350;SDS011;669;50.206;9.998;2023-12-20T05:32:57;2.57;;;2.37;;
1350;SDS011;669;50.206;9.998;2023-12-20T05:35:25;3.27;;;2.43;;
1350;SDS011;669;50.206;9.998;2023-12-20T05:37:53;4.27;;;2.40;;
1350;SDS011;669;50.206;9.998;2023-12-20T05:40:21;2.10;;;2.00;;
1350;SDS011;669;50.206;9.998;2023-12-20T05:42:50;3.27;;;2.33;;
1350;SDS011;669;50.206;9.998;2023-12-20T05:45:18;2.90;;;2.40;;
1350;SDS011;669;50.206;9.998;2023-12-20T05:47:47;2.27;;;2.17;;
1350;SDS011;669;50.206;9.998;2023-12-20T05:50:15;3.10;;;2.67;;
1350;SDS011;669;50.206;9.998;2023-12-20T05:52:43;2.33;;;2.00;;
1350;SDS011;669;50.206;9.998;2023-12-20T05:55:11;4.00;;;2.67;;
1350;SDS011;669;50.206;9.998;2023-12-20T05:57:39;2.70;;;2.50;;
1350;SDS011;669;50.206;9.998;2023-12-20T06:00:10;2.37;;;2.27;;
1350;SDS011;669;50.206;9.998;2023-12-20T06:02:39;1.90;;;1.80;;
1350;SDS011;669;50.206;9.998;2023-12-20T06:05:08;2.73;;;2.53;;
1350;SDS011;669;50.206;9.998;2023-12-20T06:07:36;6.53;;;2.57;;
1350;SDS011;669;50.206;9.998;2023-12-20T06:10:05;2.40;;;2.13;;
1350;SDS011;669;50.206;9.998;2023-12-20T06:12:33;3.13;;;2.60;;
1350;SDS011;669;50.206;9.998;2023-12-20T06:15:02;4.60;;;3.37;;
1350;SDS011;669;50.206;9.998;2023-12-20T06:17:30;4.13;;;3.73;;
1350;SDS011;669;50.206;9.998;2023-12-20T06:19:58;4.97;;;3.83;;
1350;SDS011;669;50.206;9.998;2023-12-20T06:22:28;4.63;;;3.50;;
1350;SDS011;669;50.206;9.998;2023-12-20T06:24:56;10.00;;;4.30;;
1350;SDS011;669;50.206;9.998;2023-12-20T06:27:24;5.17;;;4.67;;
1350;SDS011;669;50.206;9.998;2023-12-20T06:29:52;6.03;;;5.43;;
1350;SDS011;669;50.206;9.998;2023-12-20T06:32:20;8.20;;;4.10;;
1350;SDS011;669;50.206;9.998;2023-12-20T06:34:49;6.50;;;3.90;;
1350;SDS011;669;50.206;9.998;2023-12-20T06:37:18;5.27;;;4.77;;
1350;SDS011;669;50.206;9.998;2023-12-20T06:39:47;9.50;;;5.97;;
1350;SDS011;669;50.206;9.998;2023-12-20T06:42:15;5.03;;;4.17;;
1350;SDS011;669;50.206;9.998;2023-12-20T06:44:43;6.63;;;5.03;;
1350;SDS011;669;50.206;9.998;2023-12-20T06:47:11;11.70;;;5.80;;
1350;SDS011;669;50.206;9.998;2023-12-20T06:49:40;5.73;;;4.73;;
1350;SDS011;669;50.206;9.998;2023-12-20T06:52:08;5.10;;;4.60;;
1350;SDS011;669;50.206;9.998;2023-12-20T06:54:36;6.13;;;4.37;;
1350;SDS011;669;50.206;9.998;2023-12-20T06:57:06;9.80;;;4.30;;
1350;SDS011;669;50.206;9.998;2023-12-20T06:59:37;21.63;;;5.27;;
1350;SDS011;669;50.206;9.998;2023-12-20T07:02:06;6.30;;;5.07;;
1350;SDS011;669;50.206;9.998;2023-12-20T07:04:40;4.93;;;4.53;;
1350;SDS011;669;50.206;9.998;2023-12-20T07:07:08;5.60;;;5.10;;
1350;SDS011;669;50.206;9.998;2023-12-20T07:09:36;9.23;;;4.90;;
1350;SDS011;669;50.206;9.998;2023-12-20T07:12:06;5.53;;;4.50;;
1350;SDS011;669;50.206;9.998;2023-12-20T07:14:34;10.77;;;5.07;;
1350;SDS011;669;50.206;9.998;2023-12-20T07:17:02;4.70;;;4.27;;
1350;SDS011;669;50.206;9.998;2023-12-20T07:19:30;5.00;;;4.50;;
1350;SDS011;669;50.206;9.998;2023-12-20T07:21:58;5.20;;;4.70;;
1350;SDS011;669;50.206;9.998;2023-12-20T07:24:26;6.60;;;4.80;;
1350;SDS011;669;50.206;9.998;2023-12-20T07:26:54;9.00;;;4.57;;
1350;SDS011;669;50.206;9.998;2023-12-20T07:29:24;5.70;;;5.10;;
1350;SDS011;669;50.206;9.998;2023-12-20T07:31:52;6.13;;;5.03;;
1350;SDS011;669;50.206;9.998;2023-12-20T07:34:20;11.60;;;4.60;;
1350;SDS011;669;50.206;9.998;2023-12-20T07:36:48;5.07;;;3.93;;
1350;SDS011;669;50.206;9.998;2023-12-20T07:39:16;7.93;;;4.43;;
1350;SDS011;669;50.206;9.998;2023-12-20T07:41:45;4.47;;;4.07;;
1350;SDS011;669;50.206;9.998;2023-12-20T07:44:12;12.63;;;5.80;;
1350;SDS011;669;50.206;9.998;2023-12-20T07:46:43;4.90;;;4.47;;
1350;SDS011;669;50.206;9.998;2023-12-20T07:49:11;6.83;;;3.70;;
1350;SDS011;669;50.206;9.998;2023-12-20T07:51:39;5.10;;;4.60;;
1350;SDS011;669;50.206;9.998;2023-12-20T07:54:07;7.13;;;3.60;;
1350;SDS011;669;50.206;9.998;2023-12-20T07:56:35;4.97;;;3.53;;
1350;SDS011;669;50.206;9.998;2023-12-20T07:59:03;11.20;;;3.57;;
1350;SDS011;669;50.206;9.998;2023-12-20T08:01:35;6.90;;;3.93;;
1350;SDS011;669;50.206;9.998;2023-12-20T08:04:04;6.37;;;2.90;;
1350;SDS011;669;50.206;9.998;2023-12-20T08:06:32;7.90;;;4.00;;
1350;SDS011;669;50.206;9.998;2023-12-20T08:09:00;4.70;;;2.90;;
1350;SDS011;669;50.206;9.998;2023-12-20T08:11:32;3.77;;;2.80;;
1350;SDS011;669;50.206;9.998;2023-12-20T08:14:00;5.07;;;2.37;;
1350;SDS011;669;50.206;9.998;2023-12-20T08:16:28;3.10;;;2.60;;
1350;SDS011;669;50.206;9.998;2023-12-20T08:18:56;5.30;;;2.60;;
1350;SDS011;669;50.206;9.998;2023-12-20T08:21:25;3.40;;;2.20;;
1350;SDS011;669;50.206;9.998;2023-12-20T08:23:53;2.80;;;2.60;;
1350;SDS011;669;50.206;9.998;2023-12-20T08:26:21;6.50;;;3.00;;
1350;SDS011;669;50.206;9.998;2023-12-20T08:28:50;5.73;;;2.57;;
1350;SDS011;669;50.206;9.998;2023-12-20T08:31:18;3.80;;;2.30;;
1350;SDS011;669;50.206;9.998;2023-12-20T08:33:48;3.63;;;1.80;;
1350;SDS011;669;50.206;9.998;2023-12-20T08:36:16;5.03;;;2.10;;
1350;SDS011;669;50.206;9.998;2023-12-20T08:38:46;2.83;;;2.00;;
1350;SDS011;669;50.206;9.998;2023-12-20T08:41:15;4.90;;;2.17;;
1350;SDS011;669;50.206;9.998;2023-12-20T08:43:43;5.93;;;2.20;;
1350;SDS011;669;50.206;9.998;2023-12-20T08:46:11;4.37;;;2.93;;
1350;SDS011;669;50.206;9.998;2023-12-20T08:48:39;4.67;;;1.90;;
1350;SDS011;669;50.206;9.998;2023-12-20T08:51:07;4.10;;;1.90;;
1350;SDS011;669;50.206;9.998;2023-12-20T08:53:36;3.60;;;2.10;;
1350;SDS011;669;50.206;9.998;2023-12-20T08:56:06;5.30;;;2.13;;
1350;SDS011;669;50.206;9.998;2023-12-20T08:58:33;4.70;;;2.30;;
1350;SDS011;669;50.206;9.998;2023-12-20T09:01:02;3.10;;;2.40;;
1350;SDS011;669;50.206;9.998;2023-12-20T09:03:31;2.70;;;1.80;;
1350;SDS011;669;50.206;9.998;2023-12-20T09:05:59;5.40;;;2.07;;
1350;SDS011;669;50.206;9.998;2023-12-20T09:08:26;6.50;;;2.10;;
1350;SDS011;669;50.206;9.998;2023-12-20T09:10:54;3.07;;;2.47;;
1350;SDS011;669;50.206;9.998;2023-12-20T09:13:24;4.97;;;2.60;;
1350;SDS011;669;50.206;9.998;2023-12-20T09:15:54;3.30;;;2.00;;
1350;SDS011;669;50.206;9.998;2023-12-20T09:18:23;3.87;;;2.17;;
1350;SDS011;669;50.206;9.998;2023-12-20T09:20:51;7.40;;;2.17;;
1350;SDS011;669;50.206;9.998;2023-12-20T09:23:19;5.37;;;1.70;;
1350;SDS011;669;50.206;9.998;2023-12-20T09:25:47;5.90;;;2.20;;
1350;SDS011;669;50.206;9.998;2023-12-20T09:28:14;7.17;;;1.60;;
1350;SDS011;669;50.206;9.998;2023-12-20T09:30:44;2.27;;;2.10;;
1350;SDS011;669;50.206;9.998;2023-12-20T09:33:12;3.53;;;2.00;;
1350;SDS011;669;50.206;9.998;2023-12-20T09:35:40;7.80;;;1.80;;
1350;SDS011;669;50.206;9.998;2023-12-20T09:38:09;9.03;;;1.90;;
1350;SDS011;669;50.206;9.998;2023-12-20T09:40:37;7.77;;;2.53;;
1350;SDS011;669;50.206;9.998;2023-12-20T09:43:09;1.77;;;1.30;;
1350;SDS011;669;50.206;9.998;2023-12-20T09:45:38;2.47;;;2.10;;
1350;SDS011;669;50.206;9.998;2023-12-20T09:48:09;3.47;;;1.33;;
1350;SDS011;669;50.206;9.998;2023-12-20T09:50:40;5.50;;;1.73;;
1350;SDS011;669;50.206;9.998;2023-12-20T09:53:14;8.20;;;2.23;;
1350;SDS011;669;50.206;9.998;2023-12-20T09:55:43;2.13;;;1.90;;
1350;SDS011;669;50.206;9.998;2023-12-20T09:58:11;4.53;;;2.00;;
1350;SDS011;669;50.206;9.998;2023-12-20T10:00:39;5.33;;;1.80;;
1350;SDS011;669;50.206;9.998;2023-12-20T10:03:08;7.33;;;2.27;;
1350;SDS011;669;50.206;9.998;2023-12-20T10:05:42;2.70;;;2.40;;
1350;SDS011;669;50.206;9.998;2023-12-20T10:08:12;4.90;;;2.10;;
1350;SDS011;669;50.206;9.998;2023-12-20T10:10:39;2.40;;;2.20;;
1350;SDS011;669;50.206;9.998;2023-12-20T10:13:13;4.63;;;1.80;;
1350;SDS011;669;50.206;9.998;2023-12-20T10:15:43;7.83;;;2.80;;
1350;SDS011;669;50.206;9.998;2023-12-20T10:18:13;7.43;;;2.23;;
1350;SDS011;669;50.206;9.998;2023-12-20T10:20:41;3.63;;;1.77;;
1350;SDS011;669;50.206;9.998;2023-12-20T10:23:10;3.63;;;1.90;;
1350;SDS011;669;50.206;9.998;2023-12-20T10:25:38;3.70;;;2.50;;
1350;SDS011;669;50.206;9.998;2023-12-20T10:28:08;4.03;;;2.00;;
1350;SDS011;669;50.206;9.998;2023-12-20T10:30:38;6.33;;;1.43;;
1350;SDS011;669;50.206;9.998;2023-12-20T10:33:08;2.17;;;1.97;;
1350;SDS011;669;50.206;9.998;2023-12-20T10:35:39;10.97;;;1.60;;
1350;SDS011;669;50.206;9.998;2023-12-20T10:38:12;5.07;;;2.60;;
1350;SDS011;669;50.206;9.998;2023-12-20T10:40:42;2.53;;;2.00;;
1350;SDS011;669;50.206;9.998;2023-12-20T10:43:12;7.03;;;2.27;;
1350;SDS011;669;50.206;9.998;2023-12-20T10:45:41;5.63;;;2.57;;
1350;SDS011;669;50.206;9.998;2023-12-20T10:48:09;5.10;;;1.87;;
1350;SDS011;669;50.206;9.998;2023-12-20T10:50:40;6.60;;;2.07;;
1350;SDS011;669;50.206;9.998;2023-12-20T10:53:08;8.97;;;2.80;;
1350;SDS011;669;50.206;9.998;2023-12-20T10:55:38;6.37;;;3.00;;
1350;SDS011;669;50.206;9.998;2023-12-20T10:58:07;8.03;;;1.87;;
1350;SDS011;669;50.206;9.998;2023-12-20T11:00:36;4.60;;;2.30;;
1350;SDS011;669;50.206;9.998;2023-12-20T11:03:08;4.30;;;1.63;;
1350;SDS011;669;50.206;9.998;2023-12-20T11:05:41;1.90;;;1.80;;
1350;SDS011;669;50.206;9.998;2023-12-20T11:08:19;7.27;;;2.30;;
1350;SDS011;669;50.206;9.998;2023-12-20T11:10:55;6.93;;;1.93;;
1350;SDS011;669;50.206;9.998;2023-12-20T11:13:29;6.00;;;2.90;;
1350;SDS011;669;50.206;9.998;2023-12-20T11:16:00;9.43;;;2.83;;
1350;SDS011;669;50.206;9.998;2023-12-20T11:18:28;8.30;;;2.90;;
1350;SDS011;669;50.206;9.998;2023-12-20T11:21:01;4.47;;;2.20;;
1350;SDS011;669;50.206;9.998;2023-12-20T11:23:31;4.37;;;2.07;;
1350;SDS011;669;50.206;9.998;2023-12-20T11:26:01;3.23;;;2.00;;
1350;SDS011;669;50.206;9.998;2023-12-20T11:28:30;6.97;;;1.80;;
1350;SDS011;669;50.206;9.998;2023-12-20T11:30:58;8.33;;;2.40;;
1350;SDS011;669;50.206;9.998;2023-12-20T11:33:29;1.87;;;1.77;;
1350;SDS011;669;50.206;9.998;2023-12-20T11:35:58;6.90;;;2.17;;
1350;SDS011;669;50.206;9.998;2023-12-20T11:38:28;9.43;;;2.40;;
1350;SDS011;669;50.206;9.998;2023-12-20T11:41:04;3.90;;;1.50;;
1350;SDS011;669;50.206;9.998;2023-12-20T11:43:35;5.10;;;1.77;;
1350;SDS011;669;50.206;9.998;2023-12-20T11:46:04;7.77;;;2.37;;
1350;SDS011;669;50.206;9.998;2023-12-20T11:48:34;3.33;;;1.37;;
1350;SDS011;669;50.206;9.998;2023-12-20T11:51:08;4.13;;;1.13;;
1350;SDS011;669;50.206;9.998;2023-12-20T11:53:38;5.33;;;1.67;;
1350;SDS011;669;50.206;9.998;2023-12-20T11:56:06;3.93;;;1.70;;
1350;SDS011;669;50.206;9.998;2023-12-20T11:58:34;5.40;;;1.90;;
1350;SDS011;669;50.206;9.998;2023-12-20T12:01:03;4.17;;;2.07;;
1350;SDS011;669;50.206;9.998;2023-12-20T12:03:34;6.80;;;1.87;;
1350;SDS011;669;50.206;9.998;2023-12-20T12:06:02;2.30;;;2.10;;
1350;SDS011;669;50.206;9.998;2023-12-20T12:08:31;3.63;;;1.67;;
1350;SDS011;669;50.206;9.998;2023-12-20T12:11:01;3.57;;;2.20;;
1350;SDS011;669;50.206;9.998;2023-12-20T12:13:29;17.13;;;3.10;;
1350;SDS011;669;50.206;9.998;2023-12-20T12:15:58;5.07;;;2.17;;
1350;SDS011;669;50.206;9.998;2023-12-20T12:18:26;5.57;;;2.53;;
1350;SDS011;669;50.206;9.998;2023-12-20T12:20:59;7.83;;;2.13;;
1350;SDS011;669;50.206;9.998;2023-12-20T12:23:35;5.47;;;2.47;;
1350;SDS011;669;50.206;9.998;2023-12-20T12:26:05;4.27;;;1.87;;
1350;SDS011;669;50.206;9.998;2023-12-20T12:28:35;5.43;;;1.87;;
1350;SDS011;669;50.206;9.998;2023-12-20T12:31:03;7.37;;;2.30;;
1350;SDS011;669;50.206;9.998;2023-12-20T12:33:31;4.10;;;2.60;;
1350;SDS011;669;50.206;9.998;2023-12-20T12:35:59;8.17;;;3.60;;
1350;SDS011;669;50.206;9.998;2023-12-20T12:38:27;6.83;;;2.70;;
1350;SDS011;669;50.206;9.998;2023-12-20T12:40:55;6.73;;;3.27;;
1350;SDS011;669;50.206;9.998;2023-12-20T12:43:25;4.23;;;2.60;;
1350;SDS011;669;50.206;9.998;2023-12-20T12:45:53;3.97;;;2.27;;
1350;SDS011;669;50.206;9.998;2023-12-20T12:48:21;6.20;;;2.33;;
1350;SDS011;669;50.206;9.998;2023-12-20T12:50:50;7.97;;;2.70;;
1350;SDS011;669;50.206;9.998;2023-12-20T12:53:19;5.80;;;2.43;;
1350;SDS011;669;50.206;9.998;2023-12-20T12:55:48;5.17;;;3.00;;
1350;SDS011;669;50.206;9.998;2023-12-20T12:58:16;5.60;;;2.37;;
1350;SDS011;669;50.206;9.998;2023-12-20T13:00:45;7.73;;;4.47;;
1350;SDS011;669;50.206;9.998;2023-12-20T13:03:14;4.80;;;2.50;;
1350;SDS011;669;50.206;9.998;2023-12-20T13:05:42;11.53;;;2.40;;
1350;SDS011;669;50.206;9.998;2023-12-20T13:08:12;7.20;;;2.40;;
1350;SDS011;669;50.206;9.998;2023-12-20T13:10:40;4.97;;;2.40;;
1350;SDS011;669;50.206;9.998;2023-12-20T13:13:08;4.90;;;3.07;;
1350;SDS011;669;50.206;9.998;2023-12-20T13:15:36;5.20;;;2.70;;
1350;SDS011;669;50.206;9.998;2023-12-20T13:18:06;10.23;;;2.90;;
1350;SDS011;669;50.206;9.998;2023-12-20T13:20:34;7.33;;;3.50;;
1350;SDS011;669;50.206;9.998;2023-12-20T13:23:02;6.60;;;3.60;;
1350;SDS011;669;50.206;9.998;2023-12-20T13:25:30;5.00;;;2.20;;
1350;SDS011;669;50.206;9.998;2023-12-20T13:27:58;4.50;;;2.43;;
1350;SDS011;669;50.206;9.998;2023-12-20T13:30:26;5.43;;;2.73;;
1350;SDS011;669;50.206;9.998;2023-12-20T13:32:54;2.93;;;2.20;;
1350;SDS011;669;50.206;9.998;2023-12-20T13:35:23;9.83;;;2.20;;
1350;SDS011;669;50.206;9.998;2023-12-20T13:37:51;3.27;;;2.03;;
1350;SDS011;669;50.206;9.998;2023-12-20T13:40:19;5.83;;;2.30;;
1350;SDS011;669;50.206;9.998;2023-12-20T13:42:47;3.83;;;1.63;;
1350;SDS011;669;50.206;9.998;2023-12-20T13:45:15;3.50;;;2.53;;
1350;SDS011;669;50.206;9.998;2023-12-20T13:47:43;3.63;;;1.83;;
1350;SDS011;669;50.206;9.998;2023-12-20T13:50:12;5.13;;;3.00;;
1350;SDS011;669;50.206;9.998;2023-12-20T13:52:41;5.00;;;2.53;;
1350;SDS011;669;50.206;9.998;2023-12-20T13:55:09;2.90;;;2.43;;
1350;SDS011;669;50.206;9.998;2023-12-20T13:57:37;7.37;;;2.33;;
1350;SDS011;669;50.206;9.998;2023-12-20T14:00:09;5.07;;;2.37;;
1350;SDS011;669;50.206;9.998;2023-12-20T14:02:41;9.77;;;2.10;;
1350;SDS011;669;50.206;9.998;2023-12-20T14:05:09;3.73;;;2.10;;
1350;SDS011;669;50.206;9.998;2023-12-20T14:07:37;7.73;;;2.97;;
1350;SDS011;669;50.206;9.998;2023-12-20T14:10:07;3.97;;;2.60;;
1350;SDS011;669;50.206;9.998;2023-12-20T14:12:36;6.43;;;2.43;;
1350;SDS011;669;50.206;9.998;2023-12-20T14:15:05;3.57;;;2.40;;
1350;SDS011;669;50.206;9.998;2023-12-20T14:17:37;8.60;;;3.17;;
1350;SDS011;669;50.206;9.998;2023-12-20T14:20:05;5.63;;;2.47;;
1350;SDS011;669;50.206;9.998;2023-12-20T14:22:34;3.60;;;2.33;;
1350;SDS011;669;50.206;9.998;2023-12-20T14:25:05;2.83;;;2.63;;
1350;SDS011;669;50.206;9.998;2023-12-20T14:27:36;7.30;;;2.90;;
1350;SDS011;669;50.206;9.998;2023-12-20T14:30:04;2.27;;;2.07;;
1350;SDS011;669;50.206;9.998;2023-12-20T14:32:34;6.23;;;2.73;;
1350;SDS011;669;50.206;9.998;2023-12-20T14:35:04;9.50;;;2.40;;
1350;SDS011;669;50.206;9.998;2023-12-20T14:37:34;3.43;;;2.57;;
1350;SDS011;669;50.206;9.998;2023-12-20T14:40:08;4.10;;;2.50;;
1350;SDS011;669;50.206;9.998;2023-12-20T14:42:42;6.47;;;2.83;;
1350;SDS011;669;50.206;9.998;2023-12-20T14:45:10;5.93;;;3.03;;
1350;SDS011;669;50.206;9.998;2023-12-20T14:47:39;5.90;;;2.27;;
1350;SDS011;669;50.206;9.998;2023-12-20T14:50:07;3.97;;;2.57;;
1350;SDS011;669;50.206;9.998;2023-12-20T14:52:36;4.70;;;2.30;;
1350;SDS011;669;50.206;9.998;2023-12-20T14:55:05;5.53;;;2.60;;
1350;SDS011;669;50.206;9.998;2023-12-20T14:57:34;4.17;;;2.17;;
1350;SDS011;669;50.206;9.998;2023-12-20T15:00:02;2.37;;;2.17;;
1350;SDS011;669;50.206;9.998;2023-12-20T15:02:31;5.00;;;2.77;;
1350;SDS011;669;50.206;9.998;2023-12-20T15:04:59;11.50;;;2.70;;
1350;SDS011;669;50.206;9.998;2023-12-20T15:07:28;2.70;;;2.50;;
1350;SDS011;669;50.206;9.998;2023-12-20T15:09:56;5.73;;;2.87;;
1350;SDS011;669;50.206;9.998;2023-12-20T15:12:24;4.53;;;2.77;;
1350;SDS011;669;50.206;9.998;2023-12-20T15:14:53;4.57;;;3.00;;
1350;SDS011;669;50.206;9.998;2023-12-20T15:17:21;10.40;;;3.30;;
1350;SDS011;669;50.206;9.998;2023-12-20T15:19:49;4.57;;;2.63;;
1350;SDS011;669;50.206;9.998;2023-12-20T15:22:17;8.30;;;4.20;;
1350;SDS011;669;50.206;9.998;2023-12-20T15:24:46;10.97;;;3.70;;
1350;SDS011;669;50.206;9.998;2023-12-20T15:27:14;8.50;;;3.00;;
1350;SDS011;669;50.206;9.998;2023-12-20T15:29:42;8.43;;;4.10;;
1350;SDS011;669;50.206;9.998;2023-12-20T15:32:12;9.10;;;3.17;;
1350;SDS011;669;50.206;9.998;2023-12-20T15:34:40;8.80;;;2.60;;
1350;SDS011;669;50.206;9.998;2023-12-20T15:37:08;6.27;;;3.73;;
1350;SDS011;669;50.206;9.998;2023-12-20T15:39:36;16.03;;;4.00;;